CYYW

Details ICAO CYYW (YYW)
Name ARMSTRONG
Region Canada
Timezone America/Toronto (UTC-5.0)
Plans Departing 0
Arriving 5
Stats Elevation 1,058 ft / 322 m (AMSL)
Location 50.293397° -88.913465°
Runways 2
Magnetic Variation 4.583° W
Sunrise 2017-12-18 13:52:45 UTC / 2017-12-18 08:52:45 Local
Sunset 2017-12-18 21:54:43 UTC / 2017-12-18 16:54:43 Local
Advertisement - Login to hide

Runways

ID Width Length Bearing (true) Bearing (mag) Surface Threshold Offset Overrun Length
12 100 ft / 30 m 3,991 ft / 1,216 m 117.05° 121.63° Asphalt 0 ft / 0 m 0 ft / 0 m
18 100 ft / 30 m 2,940 ft / 896 m 178.75° 183.33° Asphalt 0 ft / 0 m 0 ft / 0 m
30 100 ft / 30 m 3,991 ft / 1,216 m 297.06° 301.64° Asphalt 0 ft / 0 m 0 ft / 0 m
36 100 ft / 30 m 2,940 ft / 896 m 358.75° 3.33° Asphalt 0 ft / 0 m 0 ft / 0 m

Map

Weather


0- 5 10 15 20 25 30 35+ Temperature / ° C

Clouds and Precipitation
Forecast for 2017-12-19 00:00 UTC. Updated an hour ago

Ground ~20,000 ft ~40,000 ft Winds

METAR

CYYW 182200Z AUTO 23007KT 200V260 9SM OVC014 M01/M02 A2935 RMK SLP959

TAF

Not found

Frequencies

Unicom 122.80 MHz CTAF
Warning: Do not use this data for real-world aviation or navigation. No guarantee of current accuracy is given.